< < Back
Terminal Aerodrome Forecast


Current Version              Previous Versions:   1  2  3  4  5  6  7  8  9  

Terminal Aerodrome Forecast

992
FTUS44 KOHX 172300 RRA
TAFCSV
TAF
KCSV 172340Z 1800/1824 29005KT P6SM BKN100 BKN200
     FM180500 00000KT 4SM BR BKN100 BKN200
     FM181000 00000KT 2SM BR BKN060 BKN200
     FM181400 03004KT P6SM SCT060 SCT200=

Latest METAR

051
SAUS70 KWBC 181100 RRM
MTRCSV
METAR KCSV 181053Z AUTO 00000KT 7SM CLR 14/12 A3002 RMK AO2 SLP151
T01440117


USA.gov is the U.S. government's official web portal to all federal, state and local government web resources and services.